Time,TemperatureF,DewpointF,PressureIn,WindDirection,WindDirectionDegrees,WindSpeedMPH,WindSpeedGustMPH,Humidity,HourlyPrecipIn,Conditions,Clouds,dailyrainin,SoftwareType,DateUTC
2013-01-21 00:04:00,40.5,18.0,29.95,NE,45,4.0,6.0,40,0.00,,,0.00,meteohub,2013-01-21 08:04:00,
2013-01-21 00:09:00,40.6,18.1,29.94,SE,135,5.0,6.0,40,0.00,,,0.00,meteohub,2013-01-21 08:09:00,
2013-01-21 00:14:00,40.6,18.1,29.94,ESE,113,7.0,7.0,40,0.00,,,0.00,meteohub,2013-01-21 08:14:00,
2013-01-21 00:20:00,41.0,18.5,29.93,SE,135,5.0,8.0,40,0.00,,,0.00,meteohub,2013-01-21 08:20:00,
2013-01-21 00:25:00,40.8,18.3,29.94,East,90,4.0,8.0,40,0.00,,,0.00,meteohub,2013-01-21 08:25:00,
2013-01-21 00:30:00,40.6,18.1,29.93,SE,135,8.0,8.0,40,0.00,,,0.00,meteohub,2013-01-21 08:30:00,
2013-01-21 00:35:00,40.3,18.0,29.93,East,90,8.0,8.0,40,0.00,,,0.00,meteohub,2013-01-21 08:35:00,
2013-01-21 00:41:00,40.1,17.8,29.93,East,90,7.0,8.0,40,0.00,,,0.00,meteohub,2013-01-21 08:41:00,
2013-01-21 00:46:00,40.1,17.8,29.93,East,90,7.0,8.0,40,0.00,,,0.00,meteohub,2013-01-21 08:46:00,
2013-01-21 00:51:00,40.3,18.0,29.93,SE,135,5.0,8.0,40,0.00,,,0.00,meteohub,2013-01-21 08:51:00,
2013-01-21 00:56:00,40.6,18.1,29.93,SE,135,6.0,8.0,40,0.00,,,0.00,meteohub,2013-01-21 08:56:00,
2013-01-21 01:02:00,40.8,18.3,29.93,East,90,7.0,8.0,40,0.00,,,0.00,meteohub,2013-01-21 09:02:00,
2013-01-21 01:07:00,40.6,18.9,29.93,SE,135,4.0,8.0,41,0.00,,,0.00,meteohub,2013-01-21 09:07:00,
2013-01-21 01:12:00,40.3,18.0,29.92,SE,135,9.0,9.0,40,0.00,,,0.00,meteohub,2013-01-21 09:12:00,
2013-01-21 01:17:00,40.3,18.0,29.93,SE,135,4.0,9.0,40,0.00,,,0.00,meteohub,2013-01-21 09:17:00,
2013-01-21 01:22:00,39.9,17.6,29.92,SE,135,3.0,9.0,40,0.00,,,0.00,meteohub,2013-01-21 09:22:00,
2013-01-21 01:27:00,39.7,17.4,29.92,East,90,5.0,9.0,40,0.00,,,0.00,meteohub,2013-01-21 09:27:00,
2013-01-21 01:32:00,39.7,17.4,29.92,East,90,5.0,6.0,40,0.00,,,0.00,meteohub,2013-01-21 09:32:00,
2013-01-21 01:38:00,39.6,17.2,29.93,East,90,6.0,7.0,40,0.00,,,0.00,meteohub,2013-01-21 09:38:00,
2013-01-21 01:43:00,39.6,17.2,29.92,ESE,113,5.0,8.0,40,0.00,,,0.00,meteohub,2013-01-21 09:43:00,
2013-01-21 01:48:00,39.4,17.1,29.93,East,90,8.0,8.0,40,0.00,,,0.00,meteohub,2013-01-21 09:48:00,
2013-01-21 01:53:00,39.6,17.2,29.92,East,90,7.0,10.0,40,0.00,,,0.00,meteohub,2013-01-21 09:53:00,
2013-01-21 01:59:00,39.7,16.9,29.92,SE,135,9.0,11.0,39,0.00,,,0.00,meteohub,2013-01-21 09:59:00,
2013-01-21 02:04:00,39.7,16.9,29.92,SE,135,9.0,11.0,39,0.00,,,0.00,meteohub,2013-01-21 10:04:00,
2013-01-21 02:09:00,39.4,16.5,29.92,SE,135,11.0,11.0,39,0.00,,,0.00,meteohub,2013-01-21 10:09:00,
2013-01-21 02:14:00,39.2,15.8,29.92,SE,135,14.0,14.0,38,0.00,,,0.00,meteohub,2013-01-21 10:14:00,
2013-01-21 02:19:00,39.0,16.2,29.91,SE,135,9.0,11.0,39,0.00,,,0.00,meteohub,2013-01-21 10:19:00,
2013-01-21 02:25:00,38.8,16.0,29.91,East,90,9.0,14.0,39,0.00,,,0.00,meteohub,2013-01-21 10:25:00,
2013-01-21 02:30:00,38.8,16.0,29.91,SE,135,8.0,14.0,39,0.00,,,0.00,meteohub,2013-01-21 10:30:00,
2013-01-21 02:35:00,38.8,16.0,29.91,SE,135,7.0,11.0,39,0.00,,,0.00,meteohub,2013-01-21 10:35:00,
2013-01-21 02:40:00,38.7,15.8,29.91,SE,135,5.0,11.0,39,0.00,,,0.00,meteohub,2013-01-21 10:40:00,
2013-01-21 02:45:00,38.5,15.6,29.91,South,180,7.0,10.0,39,0.00,,,0.00,meteohub,2013-01-21 10:45:00,
2013-01-21 02:51:00,38.5,15.6,29.91,SE,135,4.0,8.0,39,0.00,,,0.00,meteohub,2013-01-21 10:51:00,
2013-01-21 02:56:00,38.5,15.6,29.91,East,90,7.0,8.0,39,0.00,,,0.00,meteohub,2013-01-21 10:56:00,
2013-01-21 03:01:00,38.5,15.6,29.91,SSE,158,4.0,7.0,39,0.00,,,0.00,meteohub,2013-01-21 11:01:00,
2013-01-21 03:06:00,38.3,15.4,29.90,ESE,113,5.0,7.0,39,0.00,,,0.00,meteohub,2013-01-21 11:06:00,
2013-01-21 03:11:00,38.5,15.6,29.90,ENE,68,4.0,7.0,39,0.00,,,0.00,meteohub,2013-01-21 11:11:00,
2013-01-21 03:16:00,38.7,15.8,29.90,SE,135,4.0,5.0,39,0.00,,,0.00,meteohub,2013-01-21 11:16:00,
2013-01-21 03:22:00,38.7,15.8,29.90,SE,135,3.0,5.0,39,0.00,,,0.00,meteohub,2013-01-21 11:22:00,
2013-01-21 03:27:00,38.7,15.3,29.90,SE,135,4.0,4.0,38,0.00,,,0.00,meteohub,2013-01-21 11:27:00,
2013-01-21 03:32:00,38.7,15.3,29.89,SE,135,4.0,6.0,38,0.00,,,0.00,meteohub,2013-01-21 11:32:00,
2013-01-21 03:37:00,38.8,15.4,29.89,SE,135,4.0,6.0,38,0.00,,,0.00,meteohub,2013-01-21 11:37:00,
2013-01-21 03:43:00,38.8,15.4,29.89,East,90,5.0,6.0,38,0.00,,,0.00,meteohub,2013-01-21 11:43:00,
2013-01-21 03:52:00,39.0,15.6,29.89,SE,135,6.0,8.0,38,0.00,,,0.00,meteohub,2013-01-21 11:52:00,
2013-01-21 03:57:00,39.0,15.6,29.89,SE,135,8.0,9.0,38,0.00,,,0.00,meteohub,2013-01-21 11:57:00,
2013-01-21 04:02:00,39.2,15.1,29.89,SE,135,9.0,9.0,37,0.00,,,0.00,meteohub,2013-01-21 12:02:00,
2013-01-21 04:08:00,39.0,15.6,29.89,SE,135,7.0,9.0,38,0.00,,,0.00,meteohub,2013-01-21 12:08:00,
2013-01-21 04:13:00,38.7,14.0,29.89,NE,45,4.0,9.0,36,0.00,,,0.00,meteohub,2013-01-21 12:13:00,
2013-01-21 04:18:00,38.1,13.5,29.89,East,90,5.0,9.0,36,0.00,,,0.00,meteohub,2013-01-21 12:18:00,
2013-01-21 04:23:00,37.9,13.3,29.89,SE,135,6.0,8.0,36,0.00,,,0.00,meteohub,2013-01-21 12:23:00,
2013-01-21 04:28:00,37.8,13.3,29.88,South,180,9.0,9.0,36,0.00,,,0.00,meteohub,2013-01-21 12:28:00,
2013-01-21 04:33:00,37.9,13.3,29.88,ESE,113,8.0,9.0,36,0.00,,,0.00,meteohub,2013-01-21 12:33:00,
2013-01-21 04:38:00,37.8,13.3,29.88,East,90,7.0,9.0,36,0.00,,,0.00,meteohub,2013-01-21 12:38:00,
2013-01-21 04:43:00,37.6,13.1,29.88,SW,225,6.0,9.0,36,0.00,,,0.00,meteohub,2013-01-21 12:43:00,
2013-01-21 04:48:00,37.6,13.1,29.88,SE,135,8.0,9.0,36,0.00,,,0.00,meteohub,2013-01-21 12:48:00,
2013-01-21 04:53:00,37.4,12.9,29.88,SE,135,10.0,10.0,36,0.00,,,0.00,meteohub,2013-01-21 12:53:00,
2013-01-21 04:59:00,37.2,9.3,29.88,SE,135,8.0,11.0,31,0.00,,,0.00,meteohub,2013-01-21 12:59:00,
2013-01-21 05:04:00,37.0,9.1,29.88,SE,135,8.0,11.0,31,0.00,,,0.00,meteohub,2013-01-21 13:04:00,
2013-01-21 05:09:00,37.0,9.1,29.88,SE,135,6.0,11.0,31,0.00,,,0.00,meteohub,2013-01-21 13:09:00,
2013-01-21 05:14:00,37.0,9.1,29.89,SE,135,6.0,8.0,31,0.00,,,0.00,meteohub,2013-01-21 13:14:00,
2013-01-21 05:19:00,37.0,9.1,29.88,East,90,6.0,8.0,31,0.00,,,0.00,meteohub,2013-01-21 13:19:00,
2013-01-21 05:24:00,36.9,9.0,29.88,ESE,113,5.0,8.0,31,0.00,,,0.00,meteohub,2013-01-21 13:24:00,
2013-01-21 05:29:00,36.7,9.0,29.88,SE,135,6.0,8.0,31,0.00,,,0.00,meteohub,2013-01-21 13:29:00,
2013-01-21 05:34:00,36.9,9.0,29.88,SE,135,4.0,8.0,31,0.00,,,0.00,meteohub,2013-01-21 13:34:00,
2013-01-21 05:39:00,36.9,9.0,29.88,SE,135,4.0,7.0,31,0.00,,,0.00,meteohub,2013-01-21 13:39:00,
2013-01-21 05:44:00,37.0,9.1,29.88,East,90,3.0,6.0,31,0.00,,,0.00,meteohub,2013-01-21 13:44:00,
2013-01-21 05:50:00,37.4,12.2,29.88,East,90,7.0,7.0,35,0.00,,,0.00,meteohub,2013-01-21 13:50:00,
2013-01-21 05:55:00,37.8,12.6,29.88,SE,135,6.0,6.0,35,0.00,,,0.00,meteohub,2013-01-21 13:55:00,
2013-01-21 06:00:00,38.1,12.9,29.88,SE,135,4.0,7.0,35,0.00,,,0.00,meteohub,2013-01-21 14:00:00,
2013-01-21 06:05:00,38.1,12.9,29.88,NE,45,8.0,8.0,35,0.00,,,0.00,meteohub,2013-01-21 14:05:00,
2013-01-21 06:10:00,38.1,12.9,29.88,East,90,4.0,8.0,35,0.00,,,0.00,meteohub,2013-01-21 14:10:00,
2013-01-21 06:15:00,38.1,12.9,29.88,SE,135,6.0,8.0,35,0.00,,,0.00,meteohub,2013-01-21 14:15:00,
2013-01-21 06:20:00,38.5,13.3,29.88,SE,135,9.0,10.0,35,0.00,,,0.00,meteohub,2013-01-21 14:20:00,
2013-01-21 06:25:00,38.5,13.3,29.88,East,90,11.0,11.0,35,0.00,,,0.00,meteohub,2013-01-21 14:25:00,
2013-01-21 06:30:00,38.5,13.3,29.88,SE,135,11.0,11.0,35,0.00,,,0.00,meteohub,2013-01-21 14:30:00,
2013-01-21 06:35:00,38.7,13.3,29.88,SE,135,11.0,11.0,35,0.00,,,0.00,meteohub,2013-01-21 14:35:00,
2013-01-21 06:41:00,38.7,13.3,29.88,SE,135,6.0,11.0,35,0.00,,,0.00,meteohub,2013-01-21 14:41:00,
2013-01-21 06:46:00,38.7,13.3,29.88,East,90,9.0,11.0,35,0.00,,,0.00,meteohub,2013-01-21 14:46:00,
2013-01-21 06:51:00,38.7,13.3,29.88,SE,135,6.0,11.0,35,0.00,,,0.00,meteohub,2013-01-21 14:51:00,
2013-01-21 06:56:00,38.5,13.3,29.88,SE,135,4.0,10.0,35,0.00,,,0.00,meteohub,2013-01-21 14:56:00,
2013-01-21 07:01:00,38.3,13.1,29.89,NE,45,6.0,9.0,35,0.00,,,0.00,meteohub,2013-01-21 15:01:00,
2013-01-21 07:06:00,37.9,12.7,29.89,ESE,113,3.0,7.0,35,0.00,,,0.00,meteohub,2013-01-21 15:06:00,
2013-01-21 07:11:00,37.8,12.6,29.89,NE,45,6.0,7.0,35,0.00,,,0.00,meteohub,2013-01-21 15:11:00,
2013-01-21 07:16:00,37.6,12.4,29.89,NE,45,9.0,9.0,35,0.00,,,0.00,meteohub,2013-01-21 15:16:00,
2013-01-21 07:21:00,37.4,12.2,29.89,East,90,5.0,10.0,35,0.00,,,0.00,meteohub,2013-01-21 15:21:00,
2013-01-21 07:26:00,37.4,11.7,29.89,East,90,6.0,10.0,34,0.00,,,0.00,meteohub,2013-01-21 15:26:00,
2013-01-21 07:32:00,37.4,11.7,29.90,East,90,8.0,10.0,34,0.00,,,0.00,meteohub,2013-01-21 15:32:00,
2013-01-21 07:37:00,37.6,11.7,29.90,East,90,8.0,8.0,34,0.00,,,0.00,meteohub,2013-01-21 15:37:00,
2013-01-21 07:42:00,37.6,11.7,29.90,SSE,158,7.0,8.0,34,0.00,,,0.00,meteohub,2013-01-21 15:42:00,
2013-01-21 07:47:00,37.8,11.8,29.90,SE,135,8.0,11.0,34,0.00,,,0.00,meteohub,2013-01-21 15:47:00,
2013-01-21 07:52:00,37.9,12.0,29.91,SE,135,5.0,11.0,34,0.00,,,0.00,meteohub,2013-01-21 15:52:00,
2013-01-21 07:57:00,38.1,12.2,29.91,East,90,4.0,11.0,34,0.00,,,0.00,meteohub,2013-01-21 15:57:00,
2013-01-21 08:02:00,39.0,13.1,29.91,SE,135,6.0,8.0,34,0.00,,,0.00,meteohub,2013-01-21 16:02:00,
2013-01-21 08:07:00,39.9,13.8,29.91,East,90,6.0,8.0,34,0.00,,,0.00,meteohub,2013-01-21 16:07:00,
2013-01-21 08:12:00,40.6,13.8,29.91,East,90,4.0,8.0,33,0.00,,,0.00,meteohub,2013-01-21 16:12:00,
2013-01-21 08:17:00,41.0,14.0,29.91,SE,135,8.0,8.0,33,0.00,,,0.00,meteohub,2013-01-21 16:17:00,
2013-01-21 08:22:00,41.4,14.4,29.92,SE,135,7.0,8.0,33,0.00,,,0.00,meteohub,2013-01-21 16:22:00,
2013-01-21 08:27:00,41.9,14.9,29.92,East,90,5.0,8.0,33,0.00,,,0.00,meteohub,2013-01-21 16:27:00,
2013-01-21 08:32:00,41.9,14.9,29.92,NE,45,4.0,8.0,33,0.00,,,0.00,meteohub,2013-01-21 16:32:00,
2013-01-21 08:37:00,42.3,15.3,29.93,East,90,9.0,9.0,33,0.00,,,0.00,meteohub,2013-01-21 16:37:00,
2013-01-21 08:42:00,42.8,14.9,29.93,East,90,5.0,9.0,32,0.00,,,0.00,meteohub,2013-01-21 16:42:00,
2013-01-21 08:47:00,43.3,15.4,29.93,ESE,113,7.0,9.0,32,0.00,,,0.00,meteohub,2013-01-21 16:47:00,
2013-01-21 08:52:00,43.7,15.8,29.94,East,90,4.0,9.0,32,0.00,,,0.00,meteohub,2013-01-21 16:52:00,
2013-01-21 08:57:00,43.9,16.0,29.94,SE,135,8.0,9.0,32,0.00,,,0.00,meteohub,2013-01-21 16:57:00,
2013-01-21 09:02:00,44.2,16.2,29.93,East,90,11.0,11.0,32,0.00,,,0.00,meteohub,2013-01-21 17:02:00,
2013-01-21 09:07:00,44.8,16.0,29.93,East,90,5.0,13.0,31,0.00,,,0.00,meteohub,2013-01-21 17:07:00,
2013-01-21 09:12:00,45.9,16.9,29.93,East,90,5.0,13.0,31,0.00,,,0.00,meteohub,2013-01-21 17:12:00,
2013-01-21 09:17:00,46.6,19.0,29.93,SE,135,8.0,13.0,33,0.00,,,0.00,meteohub,2013-01-21 17:17:00,
2013-01-21 09:23:00,47.1,18.7,29.94,SE,135,7.0,11.0,32,0.00,,,0.00,meteohub,2013-01-21 17:23:00,
2013-01-21 09:28:00,47.5,19.8,29.94,South,180,7.0,11.0,33,0.00,,,0.00,meteohub,2013-01-21 17:28:00,
2013-01-21 09:33:00,48.2,19.8,29.94,SE,135,6.0,9.0,32,0.00,,,0.00,meteohub,2013-01-21 17:33:00,
2013-01-21 09:38:00,48.7,20.1,29.94,SE,135,9.0,9.0,32,0.00,,,0.00,meteohub,2013-01-21 17:38:00,
2013-01-21 09:43:00,49.5,20.8,29.94,East,90,6.0,9.0,32,0.00,,,0.00,meteohub,2013-01-21 17:43:00,
2013-01-21 09:48:00,50.0,20.5,29.94,SE,135,6.0,11.0,31,0.00,,,0.00,meteohub,2013-01-21 17:48:00,
2013-01-21 09:54:00,50.2,20.7,29.95,East,90,11.0,11.0,31,0.00,,,0.00,meteohub,2013-01-21 17:54:00,
2013-01-21 09:59:00,50.5,21.0,29.95,South,180,9.0,11.0,31,0.00,,,0.00,meteohub,2013-01-21 17:59:00,
2013-01-21 10:04:00,51.1,22.3,29.95,SE,135,12.0,12.0,32,0.00,,,0.00,meteohub,2013-01-21 18:04:00,
2013-01-21 10:09:00,51.8,22.1,29.95,SE,135,8.0,13.0,31,0.00,,,0.00,meteohub,2013-01-21 18:09:00,
2013-01-21 10:14:00,52.3,22.6,29.96,ESE,113,7.0,13.0,31,0.00,,,0.00,meteohub,2013-01-21 18:14:00,
2013-01-21 10:19:00,52.9,23.9,29.96,East,90,8.0,13.0,32,0.00,,,0.00,meteohub,2013-01-21 18:19:00,
2013-01-21 10:24:00,53.6,22.8,29.96,SE,135,6.0,11.0,30,0.00,,,0.00,meteohub,2013-01-21 18:24:00,
2013-01-21 10:29:00,55.0,23.4,29.96,East,90,10.0,10.0,29,0.00,,,0.00,meteohub,2013-01-21 18:29:00,
2013-01-21 10:35:00,56.1,25.2,29.96,SE,135,6.0,9.0,30,0.00,,,0.00,meteohub,2013-01-21 18:35:00,
2013-01-21 10:40:00,56.7,26.4,29.96,SE,135,8.0,10.0,31,0.00,,,0.00,meteohub,2013-01-21 18:40:00,
2013-01-21 10:45:00,56.7,26.4,29.96,SE,135,7.0,10.0,31,0.00,,,0.00,meteohub,2013-01-21 18:45:00,
2013-01-21 10:50:00,57.4,26.2,29.96,East,90,6.0,10.0,30,0.00,,,0.00,meteohub,2013-01-21 18:50:00,
2013-01-21 10:55:00,57.9,26.6,29.96,East,90,6.0,8.0,30,0.00,,,0.00,meteohub,2013-01-21 18:55:00,
2013-01-21 11:00:00,59.0,26.8,29.96,North,0,5.0,10.0,29,0.00,,,0.00,meteohub,2013-01-21 19:00:00,
2013-01-21 11:05:00,59.9,28.4,29.96,East,90,9.0,10.0,30,0.00,,,0.00,meteohub,2013-01-21 19:05:00,
2013-01-21 11:10:00,60.8,29.1,29.95,East,90,7.0,9.0,30,0.00,,,0.00,meteohub,2013-01-21 19:10:00,
2013-01-21 11:15:00,61.5,31.5,29.95,SE,135,5.0,10.0,32,0.00,,,0.00,meteohub,2013-01-21 19:15:00,
2013-01-21 11:20:00,61.9,31.6,29.95,SE,135,7.0,10.0,32,0.00,,,0.00,meteohub,2013-01-21 19:20:00,
2013-01-21 11:26:00,62.1,31.8,29.95,East,90,6.0,10.0,32,0.00,,,0.00,meteohub,2013-01-21 19:26:00,
2013-01-21 11:31:00,63.1,32.0,29.94,SE,135,4.0,8.0,31,0.00,,,0.00,meteohub,2013-01-21 19:31:00,
2013-01-21 11:36:00,63.3,32.2,29.94,SE,135,6.0,9.0,31,0.00,,,0.00,meteohub,2013-01-21 19:36:00,
2013-01-21 11:41:00,64.4,34.7,29.94,SE,135,7.0,9.0,33,0.00,,,0.00,meteohub,2013-01-21 19:41:00,
2013-01-21 11:46:00,64.9,36.0,29.94,East,90,8.0,9.0,34,0.00,,,0.00,meteohub,2013-01-21 19:46:00,
2013-01-21 11:51:00,66.0,37.6,29.93,North,0,5.0,9.0,35,0.00,,,0.00,meteohub,2013-01-21 19:51:00,
2013-01-21 11:56:00,66.6,37.4,29.93,NE,45,4.0,9.0,34,0.00,,,0.00,meteohub,2013-01-21 19:56:00,
2013-01-21 12:01:00,67.8,38.5,29.93,SE,135,2.0,8.0,34,0.00,,,0.00,meteohub,2013-01-21 20:01:00,
2013-01-21 12:06:00,68.4,38.8,29.93,ESE,113,4.0,8.0,34,0.00,,,0.00,meteohub,2013-01-21 20:06:00,
2013-01-21 12:12:00,68.5,39.0,29.93,ESE,113,4.0,8.0,34,0.00,,,0.00,meteohub,2013-01-21 20:12:00,
2013-01-21 12:17:00,68.9,39.4,29.93,SE,135,4.0,7.0,34,0.00,,,0.00,meteohub,2013-01-21 20:17:00,
2013-01-21 12:22:00,69.8,40.1,29.93,North,0,3.0,7.0,34,0.00,,,0.00,meteohub,2013-01-21 20:22:00,
2013-01-21 12:27:00,70.9,41.2,29.93,SE,135,3.0,5.0,34,0.00,,,0.00,meteohub,2013-01-21 20:27:00,
2013-01-21 12:32:00,71.6,41.7,29.92,SE,135,5.0,5.0,34,0.00,,,0.00,meteohub,2013-01-21 20:32:00,
2013-01-21 12:37:00,72.0,42.1,29.92,SE,135,3.0,5.0,34,0.00,,,0.00,meteohub,2013-01-21 20:37:00,
2013-01-21 12:42:00,72.0,42.1,29.91,NE,45,6.0,6.0,34,0.00,,,0.00,meteohub,2013-01-21 20:42:00,
2013-01-21 12:47:00,72.1,42.3,29.91,East,90,3.0,6.0,34,0.00,,,0.00,meteohub,2013-01-21 20:47:00,
2013-01-21 12:52:00,72.9,43.5,29.91,NNE,23,5.0,6.0,35,0.00,,,0.00,meteohub,2013-01-21 20:52:00,
2013-01-21 12:57:00,72.7,43.5,29.91,NE,45,4.0,6.0,35,0.00,,,0.00,meteohub,2013-01-21 20:57:00,
2013-01-21 13:02:00,72.1,43.0,29.91,East,90,2.0,6.0,35,0.00,,,0.00,meteohub,2013-01-21 21:02:00,
2013-01-21 13:07:00,72.3,43.2,29.91,SE,135,2.0,6.0,35,0.00,,,0.00,meteohub,2013-01-21 21:07:00,
2013-01-21 13:12:00,72.7,43.5,29.91,ESE,113,5.0,6.0,35,0.00,,,0.00,meteohub,2013-01-21 21:12:00,
2013-01-21 13:17:00,72.0,42.8,29.91,SE,135,4.0,5.0,35,0.00,,,0.00,meteohub,2013-01-21 21:17:00,
2013-01-21 13:22:00,72.3,43.2,29.90,East,90,4.0,5.0,35,0.00,,,0.00,meteohub,2013-01-21 21:22:00,
2013-01-21 13:27:00,72.1,43.0,29.90,SE,135,2.0,5.0,35,0.00,,,0.00,meteohub,2013-01-21 21:27:00,
2013-01-21 13:32:00,72.1,43.0,29.90,SE,135,5.0,5.0,35,0.00,,,0.00,meteohub,2013-01-21 21:32:00,
2013-01-21 13:37:00,71.8,42.6,29.90,East,90,4.0,5.0,35,0.00,,,0.00,meteohub,2013-01-21 21:37:00,
2013-01-21 13:42:00,72.1,43.7,29.90,North,0,3.0,6.0,36,0.00,,,0.00,meteohub,2013-01-21 21:42:00,
2013-01-21 13:47:00,72.3,43.9,29.89,SE,135,3.0,6.0,36,0.00,,,0.00,meteohub,2013-01-21 21:47:00,
2013-01-21 13:53:00,72.3,43.9,29.90,East,90,4.0,6.0,36,0.00,,,0.00,meteohub,2013-01-21 21:53:00,
2013-01-21 13:58:00,72.5,44.1,29.89,SW,225,3.0,5.0,36,0.00,,,0.00,meteohub,2013-01-21 21:58:00,
2013-01-21 14:03:00,72.5,44.1,29.89,SE,135,3.0,5.0,36,0.00,,,0.00,meteohub,2013-01-21 22:03:00,
2013-01-21 14:08:00,72.0,43.5,29.89,SE,135,2.0,5.0,36,0.00,,,0.00,meteohub,2013-01-21 22:08:00,
2013-01-21 14:13:00,72.0,43.5,29.89,South,180,2.0,4.0,36,0.00,,,0.00,meteohub,2013-01-21 22:13:00,
2013-01-21 14:18:00,72.0,43.5,29.89,NE,45,2.0,4.0,36,0.00,,,0.00,meteohub,2013-01-21 22:18:00,
2013-01-21 14:23:00,72.3,43.9,29.89,SE,135,2.0,4.0,36,0.00,,,0.00,meteohub,2013-01-21 22:23:00,
2013-01-21 14:28:00,72.7,44.2,29.89,SE,135,4.0,4.0,36,0.00,,,0.00,meteohub,2013-01-21 22:28:00,
2013-01-21 14:34:00,72.7,44.2,29.89,NE,45,4.0,4.0,36,0.00,,,0.00,meteohub,2013-01-21 22:34:00,
2013-01-21 14:39:00,72.9,44.4,29.89,SE,135,6.0,6.0,36,0.00,,,0.00,meteohub,2013-01-21 22:39:00,
2013-01-21 14:44:00,73.0,44.4,29.88,NE,45,4.0,6.0,36,0.00,,,0.00,meteohub,2013-01-21 22:44:00,
2013-01-21 14:49:00,73.2,44.6,29.88,ENE,68,5.0,6.0,36,0.00,,,0.00,meteohub,2013-01-21 22:49:00,
2013-01-21 14:54:00,73.2,45.3,29.88,NE,45,2.0,7.0,37,0.00,,,0.00,meteohub,2013-01-21 22:54:00,
2013-01-21 15:00:00,73.2,45.3,29.88,East,90,1.0,7.0,37,0.00,,,0.00,meteohub,2013-01-21 23:00:00,
2013-01-21 15:05:00,73.2,45.3,29.88,East,90,1.0,7.0,37,0.00,,,0.00,meteohub,2013-01-21 23:05:00,
2013-01-21 15:10:00,73.9,46.0,29.88,NE,45,4.0,4.0,37,0.00,,,0.00,meteohub,2013-01-21 23:10:00,
2013-01-21 15:15:00,74.3,46.4,29.88,NE,45,2.0,5.0,37,0.00,,,0.00,meteohub,2013-01-21 23:15:00,
2013-01-21 15:20:00,74.7,46.6,29.88,SE,135,4.0,5.0,37,0.00,,,0.00,meteohub,2013-01-21 23:20:00,
2013-01-21 15:25:00,74.7,46.6,29.88,SE,135,4.0,5.0,37,0.00,,,0.00,meteohub,2013-01-21 23:25:00,
2013-01-21 15:30:00,74.3,46.4,29.88,SE,135,4.0,5.0,37,0.00,,,0.00,meteohub,2013-01-21 23:30:00,
2013-01-21 15:35:00,73.9,46.0,29.88,East,90,4.0,6.0,37,0.00,,,0.00,meteohub,2013-01-21 23:35:00,
2013-01-21 15:40:00,73.8,45.9,29.88,East,90,8.0,8.0,37,0.00,,,0.00,meteohub,2013-01-21 23:40:00,
2013-01-21 15:46:00,73.8,45.9,29.87,East,90,8.0,8.0,37,0.00,,,0.00,meteohub,2013-01-21 23:46:00,
2013-01-21 15:51:00,73.4,46.2,29.86,East,90,8.0,8.0,38,0.00,,,0.00,meteohub,2013-01-21 23:51:00,
2013-01-21 15:56:00,73.2,45.3,29.86,East,90,4.0,8.0,37,0.00,,,0.00,meteohub,2013-01-21 23:56:00,
2013-01-21 16:01:00,73.0,45.1,29.86,East,90,5.0,8.0,37,0.00,,,0.00,meteohub,2013-01-22 00:01:00,
2013-01-21 16:06:00,72.9,45.1,29.86,East,90,4.0,8.0,37,0.00,,,0.00,meteohub,2013-01-22 00:06:00,
2013-01-21 16:11:00,73.0,45.1,29.86,SE,135,2.0,6.0,37,0.00,,,0.00,meteohub,2013-01-22 00:11:00,
2013-01-21 16:16:00,73.0,45.1,29.85,NE,45,6.0,6.0,37,0.00,,,0.00,meteohub,2013-01-22 00:16:00,
2013-01-21 16:21:00,72.7,45.0,29.85,East,90,3.0,6.0,37,0.00,,,0.00,meteohub,2013-01-22 00:21:00,
2013-01-21 16:26:00,72.1,44.4,29.86,East,90,4.0,6.0,37,0.00,,,0.00,meteohub,2013-01-22 00:26:00,
2013-01-21 16:31:00,71.8,44.1,29.86,East,90,4.0,6.0,37,0.00,,,0.00,meteohub,2013-01-22 00:31:00,
2013-01-21 16:36:00,71.6,43.9,29.85,NE,45,4.0,4.0,37,0.00,,,0.00,meteohub,2013-01-22 00:36:00,
2013-01-21 16:41:00,71.4,44.4,29.85,East,90,3.0,4.0,38,0.00,,,0.00,meteohub,2013-01-22 00:41:00,
2013-01-21 16:47:00,71.1,44.2,29.85,SE,135,2.0,4.0,38,0.00,,,0.00,meteohub,2013-01-22 00:47:00,
2013-01-21 16:52:00,70.7,43.9,29.85,East,90,2.0,4.0,38,0.00,,,0.00,meteohub,2013-01-22 00:52:00,
2013-01-21 16:57:00,70.2,43.3,29.85,East,90,4.0,4.0,38,0.00,,,0.00,meteohub,2013-01-22 00:57:00,
2013-01-21 17:02:00,69.6,43.5,29.85,East,90,4.0,4.0,39,0.00,,,0.00,meteohub,2013-01-22 01:02:00,
2013-01-21 17:07:00,69.6,43.5,29.85,East,90,4.0,4.0,39,0.00,,,0.00,meteohub,2013-01-22 01:07:00,
2013-01-21 17:12:00,67.8,41.9,29.85,East,90,2.0,4.0,39,0.00,,,0.00,meteohub,2013-01-22 01:12:00,
2013-01-21 17:17:00,67.3,41.5,29.85,East,90,4.0,4.0,39,0.00,,,0.00,meteohub,2013-01-22 01:17:00,
2013-01-21 17:22:00,66.7,41.0,29.86,East,90,3.0,4.0,39,0.00,,,0.00,meteohub,2013-01-22 01:22:00,
2013-01-21 17:27:00,65.8,40.8,29.85,East,90,3.0,4.0,40,0.00,,,0.00,meteohub,2013-01-22 01:27:00,
2013-01-21 17:32:00,65.3,40.3,29.85,East,90,3.0,4.0,40,0.00,,,0.00,meteohub,2013-01-22 01:32:00,
2013-01-21 17:37:00,64.8,39.9,29.85,East,90,3.0,4.0,40,0.00,,,0.00,meteohub,2013-01-22 01:37:00,
2013-01-21 17:42:00,64.0,39.2,29.86,SE,135,4.0,4.0,40,0.00,,,0.00,meteohub,2013-01-22 01:42:00,
2013-01-21 17:47:00,63.3,38.7,29.85,East,90,4.0,4.0,40,0.00,,,0.00,meteohub,2013-01-22 01:47:00,
2013-01-21 17:52:00,62.8,38.1,29.86,East,90,3.0,4.0,40,0.00,,,0.00,meteohub,2013-01-22 01:52:00,
2013-01-21 17:57:00,62.1,38.1,29.86,SE,135,2.0,6.0,41,0.00,,,0.00,meteohub,2013-01-22 01:57:00,
2013-01-21 18:02:00,61.7,37.8,29.86,South,180,2.0,6.0,41,0.00,,,0.00,meteohub,2013-01-22 02:02:00,
2013-01-21 18:07:00,61.7,37.8,29.86,South,180,2.0,6.0,41,0.00,,,0.00,meteohub,2013-01-22 02:07:00,
2013-01-21 18:12:00,60.6,36.9,29.86,SE,135,3.0,4.0,41,0.00,,,0.00,meteohub,2013-01-22 02:12:00,
2013-01-21 18:17:00,60.3,36.5,29.86,East,90,3.0,4.0,41,0.00,,,0.00,meteohub,2013-01-22 02:17:00,
2013-01-21 18:22:00,60.1,36.9,29.87,East,90,2.0,4.0,42,0.00,,,0.00,meteohub,2013-01-22 02:22:00,
2013-01-21 18:27:00,59.7,36.0,29.87,SE,135,2.0,4.0,41,0.00,,,0.00,meteohub,2013-01-22 02:27:00,
2013-01-21 18:32:00,59.5,35.8,29.87,SE,135,1.0,4.0,41,0.00,,,0.00,meteohub,2013-01-22 02:32:00,
2013-01-21 18:37:00,59.2,35.4,29.87,SE,135,0.0,2.0,41,0.00,,,0.00,meteohub,2013-01-22 02:37:00,
2013-01-21 18:42:00,59.0,35.4,29.87,South,180,2.0,2.0,41,0.00,,,0.00,meteohub,2013-01-22 02:42:00,
2013-01-21 18:47:00,58.8,35.8,29.88,South,180,0.0,2.0,42,0.00,,,0.00,meteohub,2013-01-22 02:47:00,
2013-01-21 18:52:00,58.1,34.5,29.88,West,270,0.0,2.0,41,0.00,,,0.00,meteohub,2013-01-22 02:52:00,
2013-01-21 18:57:00,57.9,34.3,29.88,West,270,2.0,2.0,41,0.00,,,0.00,meteohub,2013-01-22 02:57:00,
2013-01-21 19:02:00,57.2,33.1,29.89,West,270,0.0,2.0,40,0.00,,,0.00,meteohub,2013-01-22 03:02:00,
2013-01-21 19:07:00,56.7,33.3,29.89,West,270,2.0,2.0,41,0.00,,,0.00,meteohub,2013-01-22 03:07:00,
2013-01-21 19:12:00,56.5,33.1,29.89,West,270,1.0,2.0,41,0.00,,,0.00,meteohub,2013-01-22 03:12:00,
2013-01-21 19:17:00,56.3,32.9,29.90,West,270,2.0,2.0,41,0.00,,,0.00,meteohub,2013-01-22 03:17:00,
2013-01-21 19:22:00,56.5,33.1,29.89,East,90,1.0,2.0,41,0.00,,,0.00,meteohub,2013-01-22 03:22:00,
2013-01-21 19:27:00,56.8,33.4,29.89,South,180,2.0,2.0,41,0.00,,,0.00,meteohub,2013-01-22 03:27:00,
2013-01-21 19:32:00,56.8,33.4,29.89,South,180,1.0,3.0,41,0.00,,,0.00,meteohub,2013-01-22 03:32:00,
2013-01-21 19:37:00,56.7,33.3,29.89,South,180,1.0,3.0,41,0.00,,,0.00,meteohub,2013-01-22 03:37:00,
2013-01-21 19:42:00,56.7,33.3,29.90,South,180,3.0,3.0,41,0.00,,,0.00,meteohub,2013-01-22 03:42:00,
2013-01-21 19:47:00,57.4,33.3,29.89,SW,225,1.0,3.0,40,0.00,,,0.00,meteohub,2013-01-22 03:47:00,
2013-01-21 19:52:00,57.0,33.6,29.90,South,180,0.0,3.0,41,0.00,,,0.00,meteohub,2013-01-22 03:52:00,
2013-01-21 19:57:00,56.7,32.5,29.90,West,270,0.0,3.0,40,0.00,,,0.00,meteohub,2013-01-22 03:57:00,
2013-01-21 20:02:00,56.3,32.4,29.90,West,270,0.0,1.0,40,0.00,,,0.00,meteohub,2013-01-22 04:02:00,
2013-01-21 20:07:00,56.3,32.4,29.91,West,270,0.0,1.0,40,0.00,,,0.00,meteohub,2013-01-22 04:07:00,
2013-01-21 20:12:00,55.2,32.0,29.91,South,180,0.0,1.0,41,0.00,,,0.00,meteohub,2013-01-22 04:12:00,
2013-01-21 20:17:00,54.7,30.9,29.91,South,180,0.0,1.0,40,0.00,,,0.00,meteohub,2013-01-22 04:17:00,
2013-01-21 20:22:00,54.1,30.4,29.91,West,270,0.0,1.0,40,0.00,,,0.00,meteohub,2013-01-22 04:22:00,
2013-01-21 20:27:00,53.8,29.5,29.91,West,270,0.0,0.0,39,0.00,,,0.00,meteohub,2013-01-22 04:27:00,
2013-01-21 20:32:00,53.6,29.3,29.91,South,180,1.0,2.0,39,0.00,,,0.00,meteohub,2013-01-22 04:32:00,
2013-01-21 20:37:00,53.4,29.7,29.91,South,180,0.0,2.0,40,0.00,,,0.00,meteohub,2013-01-22 04:37:00,
2013-01-21 20:42:00,53.8,29.5,29.91,SE,135,2.0,2.0,39,0.00,,,0.00,meteohub,2013-01-22 04:42:00,
2013-01-21 20:47:00,54.3,30.6,29.92,South,180,0.0,2.0,40,0.00,,,0.00,meteohub,2013-01-22 04:47:00,
2013-01-21 20:52:00,54.1,30.4,29.91,South,180,0.0,2.0,40,0.00,,,0.00,meteohub,2013-01-22 04:52:00,
2013-01-21 20:57:00,54.1,30.4,29.91,SE,135,2.0,2.0,40,0.00,,,0.00,meteohub,2013-01-22 04:57:00,
2013-01-21 21:01:00,54.3,30.6,29.91,SE,135,3.0,3.0,40,0.00,,,0.00,meteohub,2013-01-22 05:01:00,
2013-01-21 21:02:00,54.5,30.7,29.91,South,180,4.0,4.0,40,0.00,,,0.00,meteohub,2013-01-22 05:02:00,
2013-01-21 21:04:00,54.9,30.9,29.91,SE,135,4.0,4.0,40,0.00,,,0.00,meteohub,2013-01-22 05:04:00,
2013-01-21 21:10:00,54.7,30.9,29.92,ESE,113,4.0,4.0,40,0.00,,,0.00,meteohub,2013-01-22 05:10:00,
2013-01-21 21:15:00,54.9,30.9,29.92,SSE,158,6.0,6.0,40,0.00,,,0.00,meteohub,2013-01-22 05:15:00,
2013-01-21 21:20:00,55.0,31.1,29.92,SE,135,4.0,6.0,40,0.00,,,0.00,meteohub,2013-01-22 05:20:00,
2013-01-21 21:25:00,54.1,30.4,29.92,South,180,4.0,6.0,40,0.00,,,0.00,meteohub,2013-01-22 05:25:00,
2013-01-21 21:30:00,53.6,29.3,29.92,SW,225,4.0,6.0,39,0.00,,,0.00,meteohub,2013-01-22 05:30:00,
2013-01-21 21:35:00,53.8,29.5,29.92,South,180,3.0,6.0,39,0.00,,,0.00,meteohub,2013-01-22 05:35:00,
2013-01-21 21:41:00,53.8,29.5,29.92,SE,135,3.0,6.0,39,0.00,,,0.00,meteohub,2013-01-22 05:41:00,
2013-01-21 21:46:00,53.1,29.3,29.92,East,90,2.0,6.0,40,0.00,,,0.00,meteohub,2013-01-22 05:46:00,
2013-01-21 21:51:00,52.5,28.9,29.92,ESE,113,4.0,4.0,40,0.00,,,0.00,meteohub,2013-01-22 05:51:00,
2013-01-21 21:56:00,52.3,28.8,29.92,SE,135,4.0,4.0,40,0.00,,,0.00,meteohub,2013-01-22 05:56:00,
2013-01-21 22:01:00,52.0,28.4,29.92,SE,135,4.0,4.0,40,0.00,,,0.00,meteohub,2013-01-22 06:01:00,
2013-01-21 22:06:00,52.0,28.4,29.92,SE,135,4.0,4.0,40,0.00,,,0.00,meteohub,2013-01-22 06:06:00,
2013-01-21 22:11:00,50.5,27.1,29.92,NE,45,2.0,4.0,40,0.00,,,0.00,meteohub,2013-01-22 06:11:00,
2013-01-21 22:16:00,50.0,26.6,29.92,East,90,2.0,4.0,40,0.00,,,0.00,meteohub,2013-01-22 06:16:00,
2013-01-21 22:21:00,49.3,26.1,29.92,East,90,1.0,4.0,40,0.00,,,0.00,meteohub,2013-01-22 06:21:00,
2013-01-21 22:26:00,48.6,25.3,29.92,South,180,1.0,2.0,40,0.00,,,0.00,meteohub,2013-01-22 06:26:00,
2013-01-21 22:32:00,48.2,25.0,29.92,SE,135,3.0,3.0,40,0.00,,,0.00,meteohub,2013-01-22 06:32:00,
2013-01-21 22:37:00,47.8,24.6,29.91,South,180,2.0,3.0,40,0.00,,,0.00,meteohub,2013-01-22 06:37:00,
2013-01-21 22:42:00,47.5,24.4,29.91,SE,135,3.0,3.0,40,0.00,,,0.00,meteohub,2013-01-22 06:42:00,
2013-01-21 22:47:00,47.1,24.1,29.91,SE,135,2.0,4.0,40,0.00,,,0.00,meteohub,2013-01-22 06:47:00,
2013-01-21 22:52:00,46.4,23.4,29.92,SE,135,3.0,4.0,40,0.00,,,0.00,meteohub,2013-01-22 06:52:00,
2013-01-21 22:57:00,45.9,23.5,29.91,SE,135,4.0,4.0,41,0.00,,,0.00,meteohub,2013-01-22 06:57:00,
2013-01-21 23:02:00,45.3,23.0,29.91,ESE,113,4.0,4.0,41,0.00,,,0.00,meteohub,2013-01-22 07:02:00,
2013-01-21 23:07:00,44.8,22.5,29.90,SE,135,3.0,4.0,41,0.00,,,0.00,meteohub,2013-01-22 07:07:00,
2013-01-21 23:12:00,44.1,22.5,29.91,SE,135,3.0,4.0,42,0.00,,,0.00,meteohub,2013-01-22 07:12:00,
2013-01-21 23:17:00,43.7,21.6,29.90,SE,135,2.0,4.0,41,0.00,,,0.00,meteohub,2013-01-22 07:17:00,
2013-01-21 23:22:00,43.3,21.2,29.90,SE,135,2.0,4.0,41,0.00,,,0.00,meteohub,2013-01-22 07:22:00,
2013-01-21 23:27:00,43.0,20.3,29.90,SE,135,3.0,3.0,40,0.00,,,0.00,meteohub,2013-01-22 07:27:00,
2013-01-21 23:32:00,42.6,20.5,29.90,SE,135,3.0,3.0,41,0.00,,,0.00,meteohub,2013-01-22 07:32:00,
2013-01-21 23:38:00,42.4,20.5,29.90,SE,135,3.0,3.0,41,0.00,,,0.00,meteohub,2013-01-22 07:38:00,
2013-01-21 23:43:00,42.3,20.3,29.90,SE,135,4.0,4.0,41,0.00,,,0.00,meteohub,2013-01-22 07:43:00,
2013-01-21 23:48:00,42.8,20.1,29.90,SE,135,6.0,6.0,40,0.00,,,0.00,meteohub,2013-01-22 07:48:00,
2013-01-21 23:53:00,42.8,20.1,29.90,SE,135,6.0,6.0,40,0.00,,,0.00,meteohub,2013-01-22 07:53:00,
2013-01-21 23:58:00,42.8,20.1,29.90,SE,135,6.0,8.0,40,0.00,,,0.00,meteohub,2013-01-22 07:58:00,